sensor_id;sensor_type;location;lat;lon;timestamp;P1;durP1;ratioP1;P2;durP2;ratioP2
25207;SDS011;13153;52.316;21.166;2023-07-31T00:00:33;6.75;;;3.40;;
25207;SDS011;13153;52.316;21.166;2023-07-31T00:02:59;4.93;;;3.30;;
25207;SDS011;13153;52.316;21.166;2023-07-31T00:05:24;8.00;;;3.40;;
25207;SDS011;13153;52.316;21.166;2023-07-31T00:07:50;4.68;;;3.35;;
25207;SDS011;13153;52.316;21.166;2023-07-31T00:10:16;6.05;;;3.30;;
25207;SDS011;13153;52.316;21.166;2023-07-31T00:12:43;8.20;;;3.72;;
25207;SDS011;13153;52.316;21.166;2023-07-31T00:15:10;6.55;;;3.17;;
25207;SDS011;13153;52.316;21.166;2023-07-31T00:17:38;6.72;;;3.25;;
25207;SDS011;13153;52.316;21.166;2023-07-31T00:20:03;7.30;;;3.50;;
25207;SDS011;13153;52.316;21.166;2023-07-31T00:22:30;4.35;;;2.90;;
25207;SDS011;13153;52.316;21.166;2023-07-31T00:24:56;4.80;;;3.42;;
25207;SDS011;13153;52.316;21.166;2023-07-31T00:27:22;4.63;;;3.22;;
25207;SDS011;13153;52.316;21.166;2023-07-31T00:29:48;3.63;;;3.10;;
25207;SDS011;13153;52.316;21.166;2023-07-31T00:32:14;6.20;;;3.38;;
25207;SDS011;13153;52.316;21.166;2023-07-31T00:34:39;4.18;;;2.92;;
25207;SDS011;13153;52.316;21.166;2023-07-31T00:37:05;3.80;;;2.65;;
25207;SDS011;13153;52.316;21.166;2023-07-31T00:39:33;5.93;;;3.10;;
25207;SDS011;13153;52.316;21.166;2023-07-31T00:42:00;6.28;;;3.40;;
25207;SDS011;13153;52.316;21.166;2023-07-31T00:44:26;5.80;;;2.92;;
25207;SDS011;13153;52.316;21.166;2023-07-31T00:46:52;3.22;;;2.70;;
25207;SDS011;13153;52.316;21.166;2023-07-31T00:49:21;3.25;;;2.60;;
25207;SDS011;13153;52.316;21.166;2023-07-31T00:51:47;5.82;;;3.00;;
25207;SDS011;13153;52.316;21.166;2023-07-31T00:54:13;5.40;;;3.15;;
25207;SDS011;13153;52.316;21.166;2023-07-31T00:56:39;3.45;;;2.90;;
25207;SDS011;13153;52.316;21.166;2023-07-31T00:59:09;3.38;;;2.67;;
25207;SDS011;13153;52.316;21.166;2023-07-31T01:01:35;2.83;;;2.30;;
25207;SDS011;13153;52.316;21.166;2023-07-31T01:04:01;4.00;;;2.78;;
25207;SDS011;13153;52.316;21.166;2023-07-31T01:06:36;4.22;;;2.55;;
25207;SDS011;13153;52.316;21.166;2023-07-31T01:11:52;5.18;;;2.47;;
25207;SDS011;13153;52.316;21.166;2023-07-31T01:14:22;5.75;;;2.60;;
25207;SDS011;13153;52.316;21.166;2023-07-31T01:16:47;6.65;;;3.17;;
25207;SDS011;13153;52.316;21.166;2023-07-31T01:19:14;3.97;;;2.47;;
25207;SDS011;13153;52.316;21.166;2023-07-31T01:24:41;4.93;;;2.63;;
25207;SDS011;13153;52.316;21.166;2023-07-31T01:27:34;4.45;;;2.58;;
25207;SDS011;13153;52.316;21.166;2023-07-31T01:30:15;5.22;;;2.72;;
25207;SDS011;13153;52.316;21.166;2023-07-31T01:32:47;4.40;;;2.58;;
25207;SDS011;13153;52.316;21.166;2023-07-31T01:35:16;3.58;;;2.53;;
25207;SDS011;13153;52.316;21.166;2023-07-31T01:37:42;3.33;;;2.60;;
25207;SDS011;13153;52.316;21.166;2023-07-31T01:40:07;4.50;;;2.40;;
25207;SDS011;13153;52.316;21.166;2023-07-31T01:42:34;3.90;;;2.58;;
25207;SDS011;13153;52.316;21.166;2023-07-31T01:45:00;4.22;;;2.90;;
25207;SDS011;13153;52.316;21.166;2023-07-31T01:47:25;4.22;;;2.67;;
25207;SDS011;13153;52.316;21.166;2023-07-31T01:49:51;4.45;;;2.80;;
25207;SDS011;13153;52.316;21.166;2023-07-31T01:52:17;3.80;;;2.45;;
25207;SDS011;13153;52.316;21.166;2023-07-31T01:54:43;3.17;;;2.40;;
25207;SDS011;13153;52.316;21.166;2023-07-31T01:57:08;4.18;;;2.65;;
25207;SDS011;13153;52.316;21.166;2023-07-31T01:59:35;4.57;;;2.60;;
25207;SDS011;13153;52.316;21.166;2023-07-31T02:02:01;3.72;;;2.70;;
25207;SDS011;13153;52.316;21.166;2023-07-31T02:04:27;3.78;;;2.72;;
25207;SDS011;13153;52.316;21.166;2023-07-31T02:06:52;3.40;;;2.80;;
25207;SDS011;13153;52.316;21.166;2023-07-31T02:09:18;5.70;;;2.70;;
25207;SDS011;13153;52.316;21.166;2023-07-31T02:11:44;7.65;;;2.58;;
25207;SDS011;13153;52.316;21.166;2023-07-31T02:14:10;4.10;;;2.92;;
25207;SDS011;13153;52.316;21.166;2023-07-31T02:16:36;4.93;;;2.60;;
25207;SDS011;13153;52.316;21.166;2023-07-31T02:19:01;5.45;;;2.72;;
25207;SDS011;13153;52.316;21.166;2023-07-31T02:21:27;4.32;;;2.72;;
25207;SDS011;13153;52.316;21.166;2023-07-31T02:23:53;4.43;;;2.78;;
25207;SDS011;13153;52.316;21.166;2023-07-31T02:26:19;6.45;;;2.97;;
25207;SDS011;13153;52.316;21.166;2023-07-31T02:28:44;5.20;;;2.95;;
25207;SDS011;13153;52.316;21.166;2023-07-31T02:31:10;3.90;;;3.00;;
25207;SDS011;13153;52.316;21.166;2023-07-31T02:33:36;6.18;;;3.00;;
25207;SDS011;13153;52.316;21.166;2023-07-31T02:36:02;4.13;;;2.92;;
25207;SDS011;13153;52.316;21.166;2023-07-31T02:38:27;4.22;;;2.97;;
25207;SDS011;13153;52.316;21.166;2023-07-31T02:40:53;3.45;;;2.85;;
25207;SDS011;13153;52.316;21.166;2023-07-31T02:43:19;4.85;;;2.92;;
25207;SDS011;13153;52.316;21.166;2023-07-31T02:45:45;4.05;;;2.70;;
25207;SDS011;13153;52.316;21.166;2023-07-31T02:48:10;5.18;;;3.08;;
25207;SDS011;13153;52.316;21.166;2023-07-31T02:50:36;9.05;;;3.30;;
25207;SDS011;13153;52.316;21.166;2023-07-31T02:53:02;4.55;;;2.95;;
25207;SDS011;13153;52.316;21.166;2023-07-31T02:55:28;4.05;;;2.88;;
25207;SDS011;13153;52.316;21.166;2023-07-31T02:57:53;9.15;;;3.72;;
25207;SDS011;13153;52.316;21.166;2023-07-31T03:00:19;4.38;;;3.35;;
25207;SDS011;13153;52.316;21.166;2023-07-31T03:02:45;5.32;;;2.80;;
25207;SDS011;13153;52.316;21.166;2023-07-31T03:05:10;5.03;;;3.20;;
25207;SDS011;13153;52.316;21.166;2023-07-31T03:07:36;6.90;;;3.20;;
25207;SDS011;13153;52.316;21.166;2023-07-31T03:10:02;6.97;;;3.60;;
25207;SDS011;13153;52.316;21.166;2023-07-31T03:12:28;6.57;;;3.22;;
25207;SDS011;13153;52.316;21.166;2023-07-31T03:14:54;12.95;;;4.57;;
25207;SDS011;13153;52.316;21.166;2023-07-31T03:17:19;8.38;;;3.97;;
25207;SDS011;13153;52.316;21.166;2023-07-31T03:19:45;8.00;;;3.78;;
25207;SDS011;13153;52.316;21.166;2023-07-31T03:22:11;4.90;;;3.40;;
25207;SDS011;13153;52.316;21.166;2023-07-31T03:24:37;5.57;;;3.15;;
25207;SDS011;13153;52.316;21.166;2023-07-31T03:27:03;5.75;;;3.13;;
25207;SDS011;13153;52.316;21.166;2023-07-31T03:29:29;7.50;;;3.25;;
25207;SDS011;13153;52.316;21.166;2023-07-31T03:31:54;5.40;;;3.42;;
25207;SDS011;13153;52.316;21.166;2023-07-31T03:34:21;6.03;;;3.08;;
25207;SDS011;13153;52.316;21.166;2023-07-31T03:36:47;4.50;;;3.30;;
25207;SDS011;13153;52.316;21.166;2023-07-31T03:39:13;4.60;;;3.10;;
25207;SDS011;13153;52.316;21.166;2023-07-31T03:41:39;6.45;;;3.20;;
25207;SDS011;13153;52.316;21.166;2023-07-31T03:44:04;7.15;;;4.45;;
25207;SDS011;13153;52.316;21.166;2023-07-31T03:46:30;7.93;;;4.35;;
25207;SDS011;13153;52.316;21.166;2023-07-31T03:48:56;10.88;;;5.22;;
25207;SDS011;13153;52.316;21.166;2023-07-31T03:51:22;8.23;;;4.95;;
25207;SDS011;13153;52.316;21.166;2023-07-31T03:53:47;5.10;;;3.67;;
25207;SDS011;13153;52.316;21.166;2023-07-31T03:56:13;6.78;;;3.80;;
25207;SDS011;13153;52.316;21.166;2023-07-31T03:58:39;6.50;;;3.95;;
25207;SDS011;13153;52.316;21.166;2023-07-31T04:01:05;7.45;;;4.10;;
25207;SDS011;13153;52.316;21.166;2023-07-31T04:03:31;5.30;;;3.55;;
25207;SDS011;13153;52.316;21.166;2023-07-31T04:05:57;4.85;;;3.50;;
25207;SDS011;13153;52.316;21.166;2023-07-31T04:08:23;4.88;;;3.25;;
25207;SDS011;13153;52.316;21.166;2023-07-31T04:10:49;5.97;;;3.50;;
25207;SDS011;13153;52.316;21.166;2023-07-31T04:13:15;7.82;;;5.50;;
25207;SDS011;13153;52.316;21.166;2023-07-31T04:15:41;9.25;;;6.03;;
25207;SDS011;13153;52.316;21.166;2023-07-31T04:18:07;6.30;;;4.38;;
25207;SDS011;13153;52.316;21.166;2023-07-31T04:20:33;5.97;;;3.70;;
25207;SDS011;13153;52.316;21.166;2023-07-31T04:22:59;7.97;;;4.05;;
25207;SDS011;13153;52.316;21.166;2023-07-31T04:25:24;6.18;;;4.20;;
25207;SDS011;13153;52.316;21.166;2023-07-31T04:27:50;11.57;;;7.03;;
25207;SDS011;13153;52.316;21.166;2023-07-31T04:30:16;10.20;;;5.97;;
25207;SDS011;13153;52.316;21.166;2023-07-31T04:32:42;9.70;;;4.95;;
25207;SDS011;13153;52.316;21.166;2023-07-31T04:35:07;9.48;;;5.75;;
25207;SDS011;13153;52.316;21.166;2023-07-31T04:37:33;6.70;;;3.95;;
25207;SDS011;13153;52.316;21.166;2023-07-31T04:39:59;5.30;;;3.33;;
25207;SDS011;13153;52.316;21.166;2023-07-31T04:42:25;4.88;;;3.38;;
25207;SDS011;13153;52.316;21.166;2023-07-31T04:44:50;5.40;;;2.92;;
25207;SDS011;13153;52.316;21.166;2023-07-31T04:47:18;6.15;;;3.20;;
25207;SDS011;13153;52.316;21.166;2023-07-31T04:49:44;7.05;;;3.80;;
25207;SDS011;13153;52.316;21.166;2023-07-31T04:52:10;5.20;;;2.83;;
25207;SDS011;13153;52.316;21.166;2023-07-31T04:54:36;4.88;;;3.28;;
25207;SDS011;13153;52.316;21.166;2023-07-31T04:57:01;5.07;;;3.28;;
25207;SDS011;13153;52.316;21.166;2023-07-31T04:59:27;6.78;;;3.40;;
25207;SDS011;13153;52.316;21.166;2023-07-31T05:01:53;8.15;;;3.40;;
25207;SDS011;13153;52.316;21.166;2023-07-31T05:04:19;5.55;;;3.42;;
25207;SDS011;13153;52.316;21.166;2023-07-31T05:06:45;4.03;;;3.35;;
25207;SDS011;13153;52.316;21.166;2023-07-31T05:09:10;5.13;;;3.25;;
25207;SDS011;13153;52.316;21.166;2023-07-31T05:11:36;4.70;;;3.33;;
25207;SDS011;13153;52.316;21.166;2023-07-31T05:14:02;4.80;;;3.38;;
25207;SDS011;13153;52.316;21.166;2023-07-31T05:16:28;4.57;;;3.53;;
25207;SDS011;13153;52.316;21.166;2023-07-31T05:18:54;7.45;;;3.25;;
25207;SDS011;13153;52.316;21.166;2023-07-31T05:21:20;4.47;;;3.20;;
25207;SDS011;13153;52.316;21.166;2023-07-31T05:23:45;6.47;;;3.30;;
25207;SDS011;13153;52.316;21.166;2023-07-31T05:26:12;6.22;;;3.50;;
25207;SDS011;13153;52.316;21.166;2023-07-31T05:28:38;6.47;;;3.28;;
25207;SDS011;13153;52.316;21.166;2023-07-31T05:31:04;5.85;;;3.08;;
25207;SDS011;13153;52.316;21.166;2023-07-31T05:33:31;6.82;;;3.63;;
25207;SDS011;13153;52.316;21.166;2023-07-31T05:35:57;6.18;;;3.17;;
25207;SDS011;13153;52.316;21.166;2023-07-31T05:38:23;8.27;;;3.42;;
25207;SDS011;13153;52.316;21.166;2023-07-31T05:40:49;5.00;;;2.95;;
25207;SDS011;13153;52.316;21.166;2023-07-31T05:43:15;6.07;;;3.53;;
25207;SDS011;13153;52.316;21.166;2023-07-31T05:45:42;5.53;;;2.90;;
25207;SDS011;13153;52.316;21.166;2023-07-31T05:48:08;5.30;;;3.28;;
25207;SDS011;13153;52.316;21.166;2023-07-31T05:50:34;4.97;;;2.83;;
25207;SDS011;13153;52.316;21.166;2023-07-31T05:53:00;4.40;;;2.97;;
25207;SDS011;13153;52.316;21.166;2023-07-31T05:55:25;6.45;;;3.13;;
25207;SDS011;13153;52.316;21.166;2023-07-31T05:57:52;8.27;;;2.88;;
25207;SDS011;13153;52.316;21.166;2023-07-31T06:00:18;8.10;;;3.53;;
25207;SDS011;13153;52.316;21.166;2023-07-31T06:02:44;8.77;;;4.00;;
25207;SDS011;13153;52.316;21.166;2023-07-31T06:05:09;7.35;;;3.47;;
25207;SDS011;13153;52.316;21.166;2023-07-31T06:07:35;7.43;;;3.30;;
25207;SDS011;13153;52.316;21.166;2023-07-31T06:10:01;6.35;;;3.38;;
25207;SDS011;13153;52.316;21.166;2023-07-31T06:12:31;6.72;;;3.17;;
25207;SDS011;13153;52.316;21.166;2023-07-31T06:14:57;6.22;;;3.20;;
25207;SDS011;13153;52.316;21.166;2023-07-31T06:17:23;7.60;;;3.00;;
25207;SDS011;13153;52.316;21.166;2023-07-31T06:19:50;3.53;;;2.80;;
25207;SDS011;13153;52.316;21.166;2023-07-31T06:22:17;5.75;;;3.03;;
25207;SDS011;13153;52.316;21.166;2023-07-31T06:24:43;4.10;;;2.85;;
25207;SDS011;13153;52.316;21.166;2023-07-31T06:27:09;6.32;;;3.53;;
25207;SDS011;13153;52.316;21.166;2023-07-31T06:29:36;5.43;;;3.30;;
25207;SDS011;13153;52.316;21.166;2023-07-31T06:32:02;5.55;;;2.85;;
25207;SDS011;13153;52.316;21.166;2023-07-31T06:34:28;5.20;;;2.80;;
25207;SDS011;13153;52.316;21.166;2023-07-31T06:36:55;8.88;;;3.20;;
25207;SDS011;13153;52.316;21.166;2023-07-31T06:39:24;6.32;;;2.92;;
25207;SDS011;13153;52.316;21.166;2023-07-31T06:41:49;5.05;;;3.10;;
25207;SDS011;13153;52.316;21.166;2023-07-31T06:44:15;5.93;;;2.80;;
25207;SDS011;13153;52.316;21.166;2023-07-31T06:46:42;10.30;;;3.22;;
25207;SDS011;13153;52.316;21.166;2023-07-31T06:49:08;6.03;;;2.80;;
25207;SDS011;13153;52.316;21.166;2023-07-31T06:51:33;4.40;;;2.80;;
25207;SDS011;13153;52.316;21.166;2023-07-31T06:54:00;3.40;;;2.60;;
25207;SDS011;13153;52.316;21.166;2023-07-31T06:56:26;5.10;;;2.83;;
25207;SDS011;13153;52.316;21.166;2023-07-31T06:58:52;8.75;;;2.83;;
25207;SDS011;13153;52.316;21.166;2023-07-31T07:01:18;6.65;;;2.95;;
25207;SDS011;13153;52.316;21.166;2023-07-31T07:03:44;5.40;;;2.92;;
25207;SDS011;13153;52.316;21.166;2023-07-31T07:06:10;4.78;;;2.92;;
25207;SDS011;13153;52.316;21.166;2023-07-31T07:08:35;5.20;;;3.05;;
25207;SDS011;13153;52.316;21.166;2023-07-31T07:11:01;5.30;;;2.67;;
25207;SDS011;13153;52.316;21.166;2023-07-31T07:13:27;6.97;;;2.90;;
25207;SDS011;13153;52.316;21.166;2023-07-31T07:15:52;8.07;;;3.47;;
25207;SDS011;13153;52.316;21.166;2023-07-31T07:18:18;4.70;;;2.35;;
25207;SDS011;13153;52.316;21.166;2023-07-31T07:20:49;4.70;;;2.90;;
25207;SDS011;13153;52.316;21.166;2023-07-31T07:23:16;3.67;;;2.90;;
25207;SDS011;13153;52.316;21.166;2023-07-31T07:25:42;8.80;;;2.63;;
25207;SDS011;13153;52.316;21.166;2023-07-31T07:28:11;3.67;;;2.55;;
25207;SDS011;13153;52.316;21.166;2023-07-31T07:30:37;4.05;;;2.95;;
25207;SDS011;13153;52.316;21.166;2023-07-31T07:33:03;4.03;;;2.80;;
25207;SDS011;13153;52.316;21.166;2023-07-31T07:35:29;5.05;;;2.95;;
25207;SDS011;13153;52.316;21.166;2023-07-31T07:37:55;5.30;;;2.83;;
25207;SDS011;13153;52.316;21.166;2023-07-31T07:40:21;4.13;;;2.70;;
25207;SDS011;13153;52.316;21.166;2023-07-31T07:42:47;4.22;;;2.60;;
25207;SDS011;13153;52.316;21.166;2023-07-31T07:45:13;5.95;;;2.50;;
25207;SDS011;13153;52.316;21.166;2023-07-31T07:47:40;4.55;;;2.60;;
25207;SDS011;13153;52.316;21.166;2023-07-31T07:50:07;3.33;;;2.35;;
25207;SDS011;13153;52.316;21.166;2023-07-31T07:52:33;7.25;;;2.28;;
25207;SDS011;13153;52.316;21.166;2023-07-31T07:54:59;7.25;;;2.30;;
25207;SDS011;13153;52.316;21.166;2023-07-31T07:57:25;7.20;;;2.40;;
25207;SDS011;13153;52.316;21.166;2023-07-31T07:59:52;6.93;;;2.45;;
25207;SDS011;13153;52.316;21.166;2023-07-31T08:02:18;4.60;;;2.85;;
25207;SDS011;13153;52.316;21.166;2023-07-31T08:04:43;4.65;;;2.47;;
25207;SDS011;13153;52.316;21.166;2023-07-31T08:07:12;5.50;;;2.50;;
25207;SDS011;13153;52.316;21.166;2023-07-31T08:09:38;8.63;;;3.10;;
25207;SDS011;13153;52.316;21.166;2023-07-31T08:12:05;5.72;;;2.50;;
25207;SDS011;13153;52.316;21.166;2023-07-31T08:14:31;6.95;;;2.70;;
25207;SDS011;13153;52.316;21.166;2023-07-31T08:16:57;7.30;;;2.80;;
25207;SDS011;13153;52.316;21.166;2023-07-31T08:19:23;5.35;;;2.70;;
25207;SDS011;13153;52.316;21.166;2023-07-31T08:21:49;4.85;;;2.50;;
25207;SDS011;13153;52.316;21.166;2023-07-31T08:24:15;4.78;;;2.85;;
25207;SDS011;13153;52.316;21.166;2023-07-31T08:26:40;5.15;;;2.30;;
25207;SDS011;13153;52.316;21.166;2023-07-31T08:29:07;4.47;;;2.50;;
25207;SDS011;13153;52.316;21.166;2023-07-31T08:31:33;5.60;;;2.60;;
25207;SDS011;13153;52.316;21.166;2023-07-31T08:33:59;4.20;;;2.15;;
25207;SDS011;13153;52.316;21.166;2023-07-31T08:36:25;4.43;;;2.45;;
25207;SDS011;13153;52.316;21.166;2023-07-31T08:38:51;5.07;;;2.35;;
25207;SDS011;13153;52.316;21.166;2023-07-31T08:41:17;3.50;;;2.25;;
25207;SDS011;13153;52.316;21.166;2023-07-31T08:43:43;4.47;;;2.50;;
25207;SDS011;13153;52.316;21.166;2023-07-31T08:46:11;2.70;;;2.13;;
25207;SDS011;13153;52.316;21.166;2023-07-31T08:48:39;4.78;;;2.33;;
25207;SDS011;13153;52.316;21.166;2023-07-31T08:51:07;4.57;;;2.15;;
25207;SDS011;13153;52.316;21.166;2023-07-31T08:53:34;3.92;;;2.22;;
25207;SDS011;13153;52.316;21.166;2023-07-31T08:56:00;5.70;;;2.35;;
25207;SDS011;13153;52.316;21.166;2023-07-31T08:58:27;5.53;;;2.20;;
25207;SDS011;13153;52.316;21.166;2023-07-31T09:00:58;5.00;;;2.30;;
25207;SDS011;13153;52.316;21.166;2023-07-31T09:03:29;4.15;;;2.05;;
25207;SDS011;13153;52.316;21.166;2023-07-31T09:06:00;5.82;;;2.30;;
25207;SDS011;13153;52.316;21.166;2023-07-31T09:08:31;5.28;;;2.53;;
25207;SDS011;13153;52.316;21.166;2023-07-31T09:11:01;3.70;;;2.35;;
25207;SDS011;13153;52.316;21.166;2023-07-31T09:13:30;3.05;;;2.20;;
25207;SDS011;13153;52.316;21.166;2023-07-31T09:15:57;3.72;;;2.25;;
25207;SDS011;13153;52.316;21.166;2023-07-31T09:18:23;3.72;;;2.30;;
25207;SDS011;13153;52.316;21.166;2023-07-31T09:21:02;5.07;;;2.33;;
25207;SDS011;13153;52.316;21.166;2023-07-31T09:23:50;4.68;;;2.20;;
25207;SDS011;13153;52.316;21.166;2023-07-31T09:26:29;4.80;;;2.38;;
25207;SDS011;13153;52.316;21.166;2023-07-31T09:28:56;3.33;;;2.25;;
25207;SDS011;13153;52.316;21.166;2023-07-31T09:31:33;5.18;;;2.80;;
25207;SDS011;13153;52.316;21.166;2023-07-31T09:34:03;6.13;;;2.67;;
25207;SDS011;13153;52.316;21.166;2023-07-31T09:36:29;5.20;;;2.30;;
25207;SDS011;13153;52.316;21.166;2023-07-31T09:39:01;3.15;;;2.20;;
25207;SDS011;13153;52.316;21.166;2023-07-31T09:41:29;4.38;;;2.33;;
25207;SDS011;13153;52.316;21.166;2023-07-31T09:43:56;4.18;;;2.50;;
25207;SDS011;13153;52.316;21.166;2023-07-31T09:46:22;4.18;;;1.98;;
25207;SDS011;13153;52.316;21.166;2023-07-31T09:48:52;3.72;;;2.15;;
25207;SDS011;13153;52.316;21.166;2023-07-31T09:51:25;4.60;;;2.10;;
25207;SDS011;13153;52.316;21.166;2023-07-31T09:53:52;4.25;;;2.00;;
25207;SDS011;13153;52.316;21.166;2023-07-31T09:56:18;4.07;;;2.13;;
25207;SDS011;13153;52.316;21.166;2023-07-31T09:58:47;4.70;;;2.05;;
25207;SDS011;13153;52.316;21.166;2023-07-31T10:01:14;4.18;;;2.03;;
25207;SDS011;13153;52.316;21.166;2023-07-31T10:03:40;6.60;;;2.47;;
25207;SDS011;13153;52.316;21.166;2023-07-31T10:06:10;5.07;;;2.55;;
25207;SDS011;13153;52.316;21.166;2023-07-31T10:08:37;6.60;;;3.20;;
25207;SDS011;13153;52.316;21.166;2023-07-31T10:11:05;5.40;;;2.72;;
25207;SDS011;13153;52.316;21.166;2023-07-31T10:13:34;5.75;;;2.30;;
25207;SDS011;13153;52.316;21.166;2023-07-31T10:16:01;4.28;;;2.05;;
25207;SDS011;13153;52.316;21.166;2023-07-31T10:18:28;6.05;;;2.55;;
25207;SDS011;13153;52.316;21.166;2023-07-31T10:20:54;3.88;;;2.10;;
25207;SDS011;13153;52.316;21.166;2023-07-31T10:23:22;3.22;;;2.03;;
25207;SDS011;13153;52.316;21.166;2023-07-31T10:25:50;4.20;;;2.10;;
25207;SDS011;13153;52.316;21.166;2023-07-31T10:28:19;4.50;;;2.03;;
25207;SDS011;13153;52.316;21.166;2023-07-31T10:30:46;5.43;;;2.00;;
25207;SDS011;13153;52.316;21.166;2023-07-31T10:33:12;3.45;;;1.92;;
25207;SDS011;13153;52.316;21.166;2023-07-31T10:35:40;3.33;;;1.80;;
25207;SDS011;13153;52.316;21.166;2023-07-31T10:38:09;6.05;;;2.10;;
25207;SDS011;13153;52.316;21.166;2023-07-31T10:40:39;3.05;;;1.73;;
25207;SDS011;13153;52.316;21.166;2023-07-31T10:43:05;3.00;;;1.83;;
25207;SDS011;13153;52.316;21.166;2023-07-31T10:45:37;3.00;;;1.80;;
25207;SDS011;13153;52.316;21.166;2023-07-31T10:48:05;3.83;;;1.60;;
25207;SDS011;13153;52.316;21.166;2023-07-31T10:50:48;5.38;;;1.80;;
25207;SDS011;13153;52.316;21.166;2023-07-31T10:53:29;2.33;;;1.75;;
25207;SDS011;13153;52.316;21.166;2023-07-31T10:56:01;3.45;;;1.60;;
25207;SDS011;13153;52.316;21.166;2023-07-31T10:58:29;2.85;;;1.60;;
25207;SDS011;13153;52.316;21.166;2023-07-31T11:01:00;2.70;;;1.70;;
25207;SDS011;13153;52.316;21.166;2023-07-31T11:03:41;3.60;;;1.63;;
25207;SDS011;13153;52.316;21.166;2023-07-31T11:06:17;2.63;;;1.77;;
25207;SDS011;13153;52.316;21.166;2023-07-31T11:08:47;4.03;;;1.92;;
25207;SDS011;13153;52.316;21.166;2023-07-31T11:11:16;3.83;;;1.85;;
25207;SDS011;13153;52.316;21.166;2023-07-31T11:16:18;4.60;;;1.75;;
25207;SDS011;13153;52.316;21.166;2023-07-31T11:18:46;5.28;;;2.03;;
25207;SDS011;13153;52.316;21.166;2023-07-31T11:21:32;3.05;;;1.80;;
25207;SDS011;13153;52.316;21.166;2023-07-31T11:23:58;5.35;;;1.75;;
25207;SDS011;13153;52.316;21.166;2023-07-31T11:26:24;4.75;;;2.00;;
25207;SDS011;13153;52.316;21.166;2023-07-31T11:28:50;3.55;;;1.77;;
25207;SDS011;13153;52.316;21.166;2023-07-31T11:31:17;6.03;;;1.83;;
25207;SDS011;13153;52.316;21.166;2023-07-31T11:33:43;4.35;;;1.77;;
25207;SDS011;13153;52.316;21.166;2023-07-31T11:36:16;4.88;;;1.83;;
25207;SDS011;13153;52.316;21.166;2023-07-31T11:41:10;4.97;;;1.77;;
25207;SDS011;13153;52.316;21.166;2023-07-31T11:43:39;5.22;;;2.00;;
25207;SDS011;13153;52.316;21.166;2023-07-31T11:46:05;4.53;;;1.75;;
25207;SDS011;13153;52.316;21.166;2023-07-31T11:48:36;1.95;;;1.40;;
25207;SDS011;13153;52.316;21.166;2023-07-31T11:51:03;2.50;;;1.70;;
25207;SDS011;13153;52.316;21.166;2023-07-31T11:53:36;3.42;;;1.65;;
25207;SDS011;13153;52.316;21.166;2023-07-31T11:56:29;2.92;;;1.75;;
25207;SDS011;13153;52.316;21.166;2023-07-31T11:58:57;2.80;;;1.50;;
25207;SDS011;13153;52.316;21.166;2023-07-31T12:01:27;4.18;;;1.70;;
25207;SDS011;13153;52.316;21.166;2023-07-31T12:03:54;3.55;;;1.70;;
25207;SDS011;13153;52.316;21.166;2023-07-31T12:06:21;4.22;;;1.90;;
25207;SDS011;13153;52.316;21.166;2023-07-31T12:09:00;2.75;;;1.63;;
25207;SDS011;13153;52.316;21.166;2023-07-31T12:11:30;3.40;;;1.60;;
25207;SDS011;13153;52.316;21.166;2023-07-31T12:13:56;2.65;;;1.73;;
25207;SDS011;13153;52.316;21.166;2023-07-31T12:16:22;3.53;;;1.38;;
25207;SDS011;13153;52.316;21.166;2023-07-31T12:18:52;2.53;;;1.45;;
25207;SDS011;13153;52.316;21.166;2023-07-31T12:21:18;3.25;;;1.60;;
25207;SDS011;13153;52.316;21.166;2023-07-31T12:23:45;3.03;;;1.50;;
25207;SDS011;13153;52.316;21.166;2023-07-31T12:26:14;3.58;;;1.50;;
25207;SDS011;13153;52.316;21.166;2023-07-31T12:31:12;2.78;;;1.50;;
25207;SDS011;13153;52.316;21.166;2023-07-31T12:33:46;8.45;;;1.70;;
25207;SDS011;13153;52.316;21.166;2023-07-31T12:36:16;4.68;;;2.25;;
25207;SDS011;13153;52.316;21.166;2023-07-31T12:38:51;3.78;;;2.13;;
25207;SDS011;13153;52.316;21.166;2023-07-31T12:41:18;8.13;;;2.50;;
25207;SDS011;13153;52.316;21.166;2023-07-31T12:43:44;3.97;;;1.90;;
25207;SDS011;13153;52.316;21.166;2023-07-31T12:46:10;3.80;;;1.73;;
25207;SDS011;13153;52.316;21.166;2023-07-31T12:48:37;4.40;;;1.90;;
25207;SDS011;13153;52.316;21.166;2023-07-31T12:51:04;3.35;;;1.73;;
25207;SDS011;13153;52.316;21.166;2023-07-31T12:53:32;4.88;;;2.00;;
25207;SDS011;13153;52.316;21.166;2023-07-31T12:55:58;4.07;;;2.05;;
25207;SDS011;13153;52.316;21.166;2023-07-31T12:58:24;2.67;;;1.70;;
25207;SDS011;13153;52.316;21.166;2023-07-31T13:00:50;4.00;;;1.75;;
25207;SDS011;13153;52.316;21.166;2023-07-31T13:03:16;4.22;;;1.60;;
25207;SDS011;13153;52.316;21.166;2023-07-31T13:05:42;5.10;;;1.90;;
25207;SDS011;13153;52.316;21.166;2023-07-31T13:08:08;3.28;;;1.85;;
25207;SDS011;13153;52.316;21.166;2023-07-31T13:10:34;4.53;;;1.70;;
25207;SDS011;13153;52.316;21.166;2023-07-31T13:13:00;6.38;;;1.80;;
25207;SDS011;13153;52.316;21.166;2023-07-31T13:15:25;5.55;;;2.10;;
25207;SDS011;13153;52.316;21.166;2023-07-31T13:17:51;4.15;;;1.92;;
25207;SDS011;13153;52.316;21.166;2023-07-31T13:20:17;4.05;;;2.20;;
25207;SDS011;13153;52.316;21.166;2023-07-31T13:22:43;4.18;;;2.03;;
25207;SDS011;13153;52.316;21.166;2023-07-31T13:25:08;7.28;;;2.45;;
25207;SDS011;13153;52.316;21.166;2023-07-31T13:27:35;6.20;;;2.38;;
25207;SDS011;13153;52.316;21.166;2023-07-31T13:30:01;6.88;;;2.40;;
25207;SDS011;13153;52.316;21.166;2023-07-31T13:32:27;5.45;;;2.38;;
25207;SDS011;13153;52.316;21.166;2023-07-31T13:34:52;6.93;;;2.55;;
25207;SDS011;13153;52.316;21.166;2023-07-31T13:37:18;10.95;;;3.80;;
25207;SDS011;13153;52.316;21.166;2023-07-31T13:39:44;4.88;;;2.63;;
25207;SDS011;13153;52.316;21.166;2023-07-31T13:42:10;9.32;;;2.55;;
25207;SDS011;13153;52.316;21.166;2023-07-31T13:44:37;4.55;;;2.25;;
25207;SDS011;13153;52.316;21.166;2023-07-31T13:47:04;3.30;;;2.20;;
25207;SDS011;13153;52.316;21.166;2023-07-31T13:49:32;8.45;;;2.50;;
25207;SDS011;13153;52.316;21.166;2023-07-31T13:51:58;7.70;;;3.05;;
25207;SDS011;13153;52.316;21.166;2023-07-31T13:54:24;5.80;;;2.33;;
25207;SDS011;13153;52.316;21.166;2023-07-31T13:56:51;5.78;;;2.08;;
25207;SDS011;13153;52.316;21.166;2023-07-31T13:59:20;4.07;;;1.92;;
25207;SDS011;13153;52.316;21.166;2023-07-31T14:01:46;4.68;;;2.00;;
25207;SDS011;13153;52.316;21.166;2023-07-31T14:04:12;5.30;;;2.15;;
25207;SDS011;13153;52.316;21.166;2023-07-31T14:06:38;7.18;;;1.90;;
25207;SDS011;13153;52.316;21.166;2023-07-31T14:09:03;4.15;;;1.98;;
25207;SDS011;13153;52.316;21.166;2023-07-31T14:11:33;3.88;;;1.70;;
25207;SDS011;13153;52.316;21.166;2023-07-31T14:13:59;2.53;;;1.80;;
25207;SDS011;13153;52.316;21.166;2023-07-31T14:16:26;2.67;;;1.83;;
25207;SDS011;13153;52.316;21.166;2023-07-31T14:18:53;4.72;;;2.38;;
25207;SDS011;13153;52.316;21.166;2023-07-31T14:21:19;3.22;;;1.98;;
25207;SDS011;13153;52.316;21.166;2023-07-31T14:23:45;4.82;;;2.08;;
25207;SDS011;13153;52.316;21.166;2023-07-31T14:26:11;6.32;;;2.08;;
25207;SDS011;13153;52.316;21.166;2023-07-31T14:28:37;4.93;;;2.30;;
25207;SDS011;13153;52.316;21.166;2023-07-31T14:31:03;3.53;;;1.85;;
25207;SDS011;13153;52.316;21.166;2023-07-31T14:33:29;7.07;;;2.05;;
25207;SDS011;13153;52.316;21.166;2023-07-31T14:35:55;5.70;;;2.42;;
25207;SDS011;13153;52.316;21.166;2023-07-31T14:38:20;6.18;;;2.58;;
25207;SDS011;13153;52.316;21.166;2023-07-31T14:40:46;5.35;;;2.60;;
25207;SDS011;13153;52.316;21.166;2023-07-31T14:43:12;4.18;;;2.10;;
25207;SDS011;13153;52.316;21.166;2023-07-31T14:45:38;3.40;;;1.88;;